Impacts TAF Board
For situational awareness. Not to be used for flight planning purposes.
IDs:

KSAN - San Diego Intl Arpt, CA, US

Issued at 0731 UTC 21 Sep 2018
Updated at 0753 UTC 21 Sep 2018
Potential Impact None Slight Moderate High
Time0651Z 21/08Z 21/09Z 21/10Z 21/11Z 21/12Z 21/13Z 21/14Z 21/15Z 21/16Z 21/17Z 21/18Z 21/19Z 21/20Z>>
Type OBS PRVL PRVL PRVL PRVL PRVL PRVL PRVL PRVL PRVL PRVL PRVL PRVL PRVL
VIS 10 >6 >6 >6 >6 5 5 5 5 5 5 5 >6 >6
CIG -- -- 15 15 15 13 13 13 13 13 13 13 -- --
Cover SCT FEW OVC OVC OVC OVC OVC OVC OVC OVC OVC OVC FEW FEW
FltCat VFR VFR MVFR MVFR MVFR MVFR MVFR MVFR MVFR MVFR MVFR MVFR VFR VFR
WX -- -- -- -- -- BR BR BR BR BR BR BR -- --
WDir 20 VRB VRB VRB VRB VRB VRB VRB VRB VRB VRB VRB 280 280
WSpd 3 6 4 4 4 4 4 4 4 4 4 4 8 8
WGst -- -- -- -- -- -- -- -- -- -- -- -- -- --
Raw TAF
KSAN 210731Z 2108/2212 VRB06KT P6SM FEW015
  FM210900 VRB04KT P6SM OVC015
  FM211200 VRB04KT 5SM BR OVC013
  FM211900 28008KT P6SM FEW010
  FM220400 33004KT P6SM OVC012


Raw METAR
KSAN 210651Z 02003KT 10SM SCT015 19/15 A2996 RMK AO2 SLP145 T01940150
KSAN 210551Z 20003KT 10SM SCT015 19/15 A2996 RMK AO2 SLP144 T01940150 10217 20194 51015
KSAN 210451Z 19004KT 10SM SCT015 19/15 A2995 RMK AO2 SLP143 T01940150

METAR Board
Radar Display
Forecast Discussion
For situational awareness. Not to be used for flight planning purposes.